createdAt,value
2017-10-10T00:01:18.595Z,7.50
2017-10-10T00:03:46.104Z,6.70
2017-10-10T00:06:13.600Z,6.90
2017-10-10T00:08:41.149Z,7.90
2017-10-10T00:11:08.702Z,8.50
2017-10-10T00:13:36.216Z,7.73
2017-10-10T00:16:03.721Z,8.50
2017-10-10T00:18:31.225Z,7.60
2017-10-10T00:20:58.747Z,9.17
2017-10-10T00:23:26.262Z,8.70
2017-10-10T00:25:53.769Z,8.70
2017-10-10T00:28:21.271Z,8.20
2017-10-10T00:30:48.780Z,9.87
2017-10-10T00:33:16.280Z,8.70
2017-10-10T00:35:43.813Z,8.23
2017-10-10T00:38:11.325Z,8.80
2017-10-10T00:40:38.822Z,7.70
2017-10-10T00:43:06.335Z,8.10
2017-10-10T00:45:33.839Z,7.20
2017-10-10T00:48:01.340Z,9.03
2017-10-10T00:50:28.856Z,8.50
2017-10-10T00:52:56.382Z,7.60
2017-10-10T00:55:23.890Z,8.23
2017-10-10T00:57:51.403Z,9.80
2017-10-10T01:00:18.921Z,9.17
2017-10-10T01:02:46.430Z,8.53
2017-10-10T01:05:14.020Z,8.03
2017-10-10T01:07:41.623Z,7.87
2017-10-10T01:10:09.180Z,7.90
2017-10-10T01:12:36.695Z,7.50
2017-10-10T01:15:04.226Z,6.83
2017-10-10T01:17:31.729Z,8.90
2017-10-10T01:19:59.313Z,8.07
2017-10-10T01:22:26.823Z,7.30
2017-10-10T01:24:54.353Z,8.90
2017-10-10T01:27:21.889Z,7.40
2017-10-10T01:29:50.092Z,6.70
2017-10-10T01:32:17.578Z,7.13
2017-10-10T01:34:45.074Z,6.90
2017-10-10T01:37:12.648Z,7.13
2017-10-10T01:39:40.137Z,7.10
2017-10-10T01:42:07.639Z,7.13
2017-10-10T01:44:35.133Z,6.67
2017-10-10T01:47:02.657Z,6.20
2017-10-10T01:49:30.223Z,6.90
2017-10-10T01:51:57.769Z,6.90
2017-10-10T01:54:25.280Z,6.00
2017-10-10T01:56:52.768Z,7.00
2017-10-10T01:59:20.275Z,6.47
2017-10-10T02:01:47.801Z,6.47
2017-10-10T02:04:15.306Z,6.37
2017-10-10T02:06:42.814Z,5.90
2017-10-10T02:09:10.338Z,6.60
2017-10-10T02:11:37.841Z,7.20
2017-10-10T02:14:05.360Z,6.03
2017-10-10T02:16:32.861Z,6.60
2017-10-10T02:19:00.385Z,6.37
2017-10-10T02:21:28.068Z,6.10
2017-10-10T02:23:55.581Z,7.30
2017-10-10T02:26:23.091Z,5.67
2017-10-10T02:28:50.591Z,6.80
2017-10-10T02:31:18.107Z,6.00
2017-10-10T02:33:45.616Z,6.47
2017-10-10T02:36:13.106Z,6.10
2017-10-10T02:38:40.622Z,5.37
2017-10-10T02:41:08.139Z,6.60
2017-10-10T02:43:35.654Z,6.40
2017-10-10T02:46:03.164Z,5.83
2017-10-10T02:48:30.681Z,5.97
2017-10-10T02:50:58.292Z,6.70
2017-10-10T02:53:25.791Z,6.70
2017-10-10T02:55:53.300Z,6.47
2017-10-10T02:58:20.827Z,5.03
2017-10-10T03:00:48.325Z,5.53
2017-10-10T03:03:15.904Z,5.73
2017-10-10T03:05:43.408Z,5.93
2017-10-10T03:08:10.908Z,6.30
2017-10-10T03:10:38.409Z,7.30
2017-10-10T03:13:05.945Z,6.90
2017-10-10T03:15:33.463Z,7.70
2017-10-10T03:18:01.119Z,7.50
2017-10-10T03:20:28.634Z,5.87
2017-10-10T03:22:56.135Z,5.83
2017-10-10T03:25:23.641Z,6.60
2017-10-10T03:27:51.180Z,6.50
2017-10-10T03:30:18.685Z,5.83
2017-10-10T03:32:47.071Z,6.50
2017-10-10T03:35:14.572Z,6.30
2017-10-10T03:37:42.082Z,5.50
2017-10-10T03:40:09.592Z,4.90
2017-10-10T03:42:37.099Z,5.90
2017-10-10T03:45:04.620Z,6.97
2017-10-10T03:47:32.549Z,7.33
2017-10-10T03:50:00.079Z,6.80
2017-10-10T03:52:27.600Z,5.57
2017-10-10T03:54:55.104Z,4.87
2017-10-10T03:57:22.666Z,5.13
2017-10-10T03:59:50.176Z,6.13
2017-10-10T04:02:17.696Z,5.60
2017-10-10T04:04:45.196Z,5.43
2017-10-10T04:07:12.711Z,5.53
2017-10-10T04:09:40.222Z,6.70
2017-10-10T04:12:07.736Z,6.33
2017-10-10T04:14:35.238Z,6.20
2017-10-10T04:17:02.742Z,5.73
2017-10-10T04:19:30.261Z,6.97
2017-10-10T04:21:57.760Z,6.47
2017-10-10T04:24:25.276Z,8.30
2017-10-10T04:26:54.477Z,6.90
2017-10-10T04:29:22.058Z,7.23
2017-10-10T04:31:49.614Z,6.23
2017-10-10T04:34:17.117Z,5.67
2017-10-10T04:36:44.613Z,6.63
2017-10-10T04:39:12.110Z,6.57
2017-10-10T04:41:39.652Z,7.30
2017-10-10T04:44:07.144Z,6.13
2017-10-10T04:46:34.659Z,6.67
2017-10-10T04:49:02.172Z,7.50
2017-10-10T04:51:29.680Z,8.80
2017-10-10T04:53:57.195Z,7.30
2017-10-10T04:56:24.724Z,7.50
2017-10-10T04:58:52.267Z,7.33
2017-10-10T05:01:19.773Z,7.20
2017-10-10T05:03:47.367Z,8.00
2017-10-10T05:06:14.953Z,8.07
2017-10-10T05:08:42.476Z,7.27
2017-10-10T05:11:10.011Z,7.80
2017-10-10T05:13:37.524Z,7.87
2017-10-10T05:16:05.056Z,7.30
2017-10-10T05:18:32.568Z,7.10
2017-10-10T05:21:00.085Z,6.00
2017-10-10T05:23:27.591Z,5.77
2017-10-10T05:25:55.193Z,5.53
2017-10-10T05:28:22.704Z,5.50
2017-10-10T05:30:50.209Z,4.73
2017-10-10T05:33:17.745Z,6.23
2017-10-10T05:35:45.261Z,6.63
2017-10-10T05:38:12.771Z,6.73
2017-10-10T05:40:40.306Z,6.47
2017-10-10T05:43:07.809Z,5.87
2017-10-10T05:45:35.330Z,5.80
2017-10-10T05:48:02.836Z,5.80
2017-10-10T05:50:30.340Z,5.80
2017-10-10T05:52:57.862Z,5.90
2017-10-10T05:55:25.374Z,5.33
2017-10-10T05:57:52.951Z,6.00
2017-10-10T06:00:20.475Z,5.90
2017-10-10T06:02:47.983Z,4.87
2017-10-10T06:05:15.512Z,6.47
2017-10-10T06:07:43.039Z,5.70
2017-10-10T06:10:10.559Z,5.90
2017-10-10T06:12:38.078Z,5.40
2017-10-10T06:15:05.650Z,5.07
2017-10-10T06:17:33.149Z,4.93
2017-10-10T06:20:00.651Z,4.00
2017-10-10T06:22:28.155Z,4.53
2017-10-10T06:24:55.661Z,5.30
2017-10-10T06:27:23.204Z,4.80
2017-10-10T06:29:50.708Z,4.17
2017-10-10T06:32:18.233Z,5.23
2017-10-10T06:34:45.739Z,5.63
2017-10-10T06:37:13.229Z,5.27
2017-10-10T06:39:40.727Z,6.20
2017-10-10T06:42:08.254Z,6.17
2017-10-10T06:44:35.757Z,5.70
2017-10-10T06:47:03.299Z,5.73
2017-10-10T06:49:30.814Z,6.20
2017-10-10T06:51:58.330Z,6.57
2017-10-10T06:54:25.858Z,5.93
2017-10-10T06:56:53.366Z,5.33
2017-10-10T06:59:20.887Z,5.23
2017-10-10T07:01:48.388Z,4.40
2017-10-10T07:04:15.917Z,5.90
2017-10-10T07:06:43.406Z,5.80
2017-10-10T07:09:10.924Z,4.40
2017-10-10T07:11:38.435Z,5.10
2017-10-10T07:14:05.956Z,4.40
2017-10-10T07:16:33.455Z,4.20
2017-10-10T07:19:00.970Z,4.17
2017-10-10T07:21:28.469Z,4.40
2017-10-10T07:23:55.984Z,4.73
2017-10-10T07:26:23.598Z,4.27
2017-10-10T07:28:51.139Z,4.60
2017-10-10T07:31:18.751Z,4.30
2017-10-10T07:33:46.270Z,5.23
2017-10-10T07:36:13.773Z,4.90
2017-10-10T07:38:41.286Z,4.50
2017-10-10T07:41:08.784Z,3.73
2017-10-10T07:43:36.298Z,4.00
2017-10-10T07:46:03.830Z,5.87
2017-10-10T07:48:31.392Z,4.40
2017-10-10T07:50:58.909Z,4.17
2017-10-10T07:53:28.654Z,4.00
2017-10-10T07:56:06.235Z,4.20
2017-10-10T07:58:33.817Z,4.37
2017-10-10T08:01:01.329Z,4.30
2017-10-10T08:03:28.836Z,3.10
2017-10-10T08:05:56.359Z,4.00
2017-10-10T08:08:24.664Z,3.50
2017-10-10T08:10:52.191Z,3.87
2017-10-10T08:13:19.720Z,3.30
2017-10-10T08:15:47.224Z,3.87
2017-10-10T08:18:14.734Z,3.67
2017-10-10T08:20:42.319Z,4.00
2017-10-10T08:23:09.825Z,3.43
2017-10-10T08:25:37.334Z,3.50
2017-10-10T08:28:04.886Z,3.93
2017-10-10T08:30:32.406Z,3.80
2017-10-10T08:32:59.915Z,3.10
2017-10-10T08:35:27.460Z,3.50
2017-10-10T08:37:54.973Z,4.00
2017-10-10T08:40:22.475Z,4.43
2017-10-10T08:42:50.035Z,3.93
2017-10-10T08:45:17.555Z,3.90
2017-10-10T08:47:45.080Z,3.57
2017-10-10T08:50:12.595Z,3.30
2017-10-10T08:52:40.111Z,3.60
2017-10-10T08:55:07.643Z,2.63
2017-10-10T08:57:35.186Z,2.90
2017-10-10T09:00:02.731Z,3.30
2017-10-10T09:02:30.400Z,3.50
2017-10-10T09:04:57.927Z,3.80
2017-10-10T09:07:25.461Z,3.20
2017-10-10T09:09:53.039Z,2.27
2017-10-10T09:12:20.550Z,4.23
2017-10-10T09:14:48.067Z,2.73
2017-10-10T09:17:15.639Z,3.17
2017-10-10T09:19:43.158Z,3.17
2017-10-10T09:22:10.662Z,2.87
2017-10-10T09:24:38.169Z,3.87
2017-10-10T09:27:05.685Z,2.40
2017-10-10T09:29:33.192Z,2.43
2017-10-10T09:32:00.693Z,2.70
2017-10-10T09:34:28.208Z,2.93
2017-10-10T09:36:55.733Z,2.93
2017-10-10T09:39:23.247Z,2.80
2017-10-10T09:41:50.762Z,2.70
2017-10-10T09:44:18.271Z,2.90
2017-10-10T09:46:45.820Z,2.43
2017-10-10T09:49:13.324Z,2.83
2017-10-10T09:51:40.851Z,2.83
2017-10-10T09:54:08.356Z,2.80
2017-10-10T09:56:36.083Z,2.47
2017-10-10T09:59:03.628Z,2.93
2017-10-10T10:01:31.127Z,2.37
2017-10-10T10:03:58.658Z,2.40
2017-10-10T10:06:26.151Z,2.63
2017-10-10T10:08:53.665Z,1.83
2017-10-10T10:11:21.171Z,2.70
2017-10-10T10:13:48.699Z,2.77
2017-10-10T10:16:16.225Z,2.30
2017-10-10T10:18:43.720Z,2.17
2017-10-10T10:21:11.247Z,2.83
2017-10-10T10:23:38.755Z,3.00
2017-10-10T10:26:06.285Z,2.87
2017-10-10T10:28:33.809Z,2.40
2017-10-10T10:31:01.329Z,3.00
2017-10-10T10:33:28.858Z,2.30
2017-10-10T10:35:56.932Z,2.70
2017-10-10T10:38:24.444Z,3.10
2017-10-10T10:40:51.988Z,2.97
2017-10-10T10:43:19.502Z,2.77
2017-10-10T10:45:47.144Z,3.77
2017-10-10T10:48:14.646Z,2.43
2017-10-10T10:50:42.160Z,3.80
2017-10-10T10:53:09.678Z,2.63
2017-10-10T10:55:37.211Z,2.97
2017-10-10T10:58:04.716Z,3.10
2017-10-10T11:00:32.226Z,3.07
2017-10-10T11:02:59.728Z,2.60
2017-10-10T11:05:27.237Z,2.83
2017-10-10T11:07:54.739Z,2.47
2017-10-10T11:10:22.264Z,2.37
2017-10-10T11:12:49.776Z,2.63
2017-10-10T11:15:17.758Z,2.43
2017-10-10T11:17:45.272Z,2.90
2017-10-10T11:20:12.873Z,2.70
2017-10-10T11:22:40.387Z,2.60
2017-10-10T11:25:07.935Z,2.70
2017-10-10T11:27:35.458Z,2.80
2017-10-10T11:30:03.008Z,3.50
2017-10-10T11:32:30.528Z,2.57
2017-10-10T11:34:58.034Z,2.77
2017-10-10T11:37:25.563Z,2.27
2017-10-10T11:39:53.087Z,2.90
2017-10-10T11:42:20.606Z,2.63
2017-10-10T11:44:48.119Z,2.47
2017-10-10T11:47:15.647Z,1.93
2017-10-10T11:49:43.168Z,2.40
2017-10-10T11:52:10.708Z,2.13
2017-10-10T11:54:39.154Z,1.80
2017-10-10T11:57:06.665Z,1.90
2017-10-10T11:59:34.271Z,2.10
2017-10-10T12:02:01.772Z,2.07
2017-10-10T12:04:29.306Z,2.10
2017-10-10T12:06:56.901Z,1.60
2017-10-10T12:09:24.419Z,1.97
2017-10-10T12:11:51.936Z,1.90
2017-10-10T12:14:19.439Z,2.50
2017-10-10T12:16:46.971Z,2.37
2017-10-10T12:19:14.489Z,2.60
2017-10-10T12:21:42.128Z,2.20
2017-10-10T12:24:09.644Z,2.50
2017-10-10T12:26:37.175Z,2.83
2017-10-10T12:29:04.723Z,2.70
2017-10-10T12:31:32.244Z,2.70
2017-10-10T12:33:59.786Z,2.50
2017-10-10T12:36:27.699Z,2.80
2017-10-10T12:38:55.287Z,2.30
2017-10-10T12:41:22.804Z,2.10
2017-10-10T12:43:50.319Z,4.90
2017-10-10T12:46:17.828Z,2.30
2017-10-10T12:48:45.334Z,2.13
2017-10-10T12:51:12.850Z,2.00
2017-10-10T12:53:40.364Z,2.57
2017-10-10T12:56:07.872Z,2.47
2017-10-10T12:58:35.376Z,2.60
2017-10-10T13:01:02.907Z,2.77
2017-10-10T13:03:30.425Z,2.97
2017-10-10T13:05:58.006Z,3.00
2017-10-10T13:08:25.540Z,2.57
2017-10-10T13:10:53.124Z,3.00
2017-10-10T13:13:20.641Z,3.10
2017-10-10T13:15:48.830Z,3.93
2017-10-10T13:18:16.358Z,2.97
2017-10-10T13:20:43.867Z,3.20
2017-10-10T13:23:11.371Z,2.93
2017-10-10T13:25:38.899Z,2.80
2017-10-10T13:28:06.422Z,3.33
2017-10-10T13:30:33.968Z,3.30
2017-10-10T13:33:01.496Z,2.97
2017-10-10T13:35:29.042Z,2.80
2017-10-10T13:37:56.566Z,2.10
2017-10-10T13:40:24.103Z,2.87
2017-10-10T13:42:51.637Z,3.00
2017-10-10T13:45:19.197Z,3.80
2017-10-10T13:47:46.704Z,2.83
2017-10-10T13:50:14.241Z,3.77
2017-10-10T13:52:41.791Z,4.03
2017-10-10T13:55:09.319Z,3.90
2017-10-10T13:57:36.852Z,3.77
2017-10-10T14:00:04.387Z,4.33
2017-10-10T14:02:31.904Z,4.60
2017-10-10T14:04:59.414Z,4.10
2017-10-10T14:07:26.974Z,3.93
2017-10-10T14:09:54.485Z,4.00
2017-10-10T14:12:22.103Z,3.80
2017-10-10T14:14:49.633Z,3.50
2017-10-10T14:17:17.182Z,4.17
2017-10-10T14:19:44.703Z,3.77
2017-10-10T14:22:12.228Z,4.00
2017-10-10T14:24:39.739Z,3.73
2017-10-10T14:27:07.263Z,3.80
2017-10-10T14:29:34.778Z,3.70
2017-10-10T14:32:02.319Z,3.00
2017-10-10T14:34:29.856Z,3.10
2017-10-10T14:36:57.379Z,4.37
2017-10-10T14:39:24.919Z,3.50
2017-10-10T14:41:52.491Z,3.40
2017-10-10T14:44:20.017Z,4.03
2017-10-10T14:46:47.544Z,3.30
2017-10-10T14:49:15.064Z,4.10
2017-10-10T14:51:42.616Z,4.50
2017-10-10T14:54:10.126Z,5.00
2017-10-10T14:56:37.639Z,4.20
2017-10-10T14:59:05.145Z,4.60
2017-10-10T15:01:32.654Z,4.63
2017-10-10T15:04:00.170Z,5.10
2017-10-10T15:06:27.708Z,4.00
2017-10-10T15:08:55.248Z,4.83
2017-10-10T15:11:22.752Z,4.07
2017-10-10T15:13:50.292Z,4.53
2017-10-10T15:16:17.818Z,3.70
2017-10-10T15:18:45.319Z,4.33
2017-10-10T15:21:12.823Z,3.50
2017-10-10T15:23:40.344Z,3.90
2017-10-10T15:26:07.863Z,4.40
2017-10-10T15:28:35.427Z,3.77
2017-10-10T15:31:02.939Z,3.70
2017-10-10T15:33:30.462Z,4.43
2017-10-10T15:35:57.997Z,3.67
2017-10-10T15:38:25.524Z,3.27
2017-10-10T15:40:53.187Z,3.67
2017-10-10T15:43:20.702Z,3.50
2017-10-10T15:45:48.238Z,3.70
2017-10-10T15:48:15.759Z,3.80
2017-10-10T15:50:43.295Z,3.37
2017-10-10T15:53:10.863Z,3.20
2017-10-10T15:55:38.358Z,3.90
2017-10-10T15:58:05.878Z,3.30
2017-10-10T16:00:33.497Z,3.50
2017-10-10T16:03:01.019Z,3.80
2017-10-10T16:05:28.528Z,3.80
2017-10-10T16:07:56.049Z,3.40
2017-10-10T16:10:23.561Z,3.70
2017-10-10T16:12:51.076Z,4.40
2017-10-10T16:15:18.644Z,4.33
2017-10-10T16:17:46.159Z,5.07
2017-10-10T16:20:13.667Z,3.50
2017-10-10T16:22:41.235Z,3.17
2017-10-10T16:25:08.745Z,3.50
2017-10-10T16:27:36.248Z,3.57
2017-10-10T16:30:03.767Z,4.00
2017-10-10T16:32:31.368Z,4.27
2017-10-10T16:34:58.880Z,4.33
2017-10-10T16:37:26.419Z,3.60
2017-10-10T16:39:53.936Z,3.17
2017-10-10T16:42:21.454Z,3.70
2017-10-10T16:44:48.971Z,3.20
2017-10-10T16:47:16.475Z,2.93
2017-10-10T16:49:43.986Z,3.53
2017-10-10T16:52:11.501Z,3.53
2017-10-10T16:54:39.012Z,3.70
2017-10-10T16:57:06.540Z,3.70
2017-10-10T16:59:34.069Z,3.73
2017-10-10T17:02:01.599Z,2.83
2017-10-10T17:04:29.113Z,4.37
2017-10-10T17:06:56.777Z,3.53
2017-10-10T17:09:24.310Z,4.10
2017-10-10T17:11:51.859Z,3.40
2017-10-10T17:14:19.496Z,3.97
2017-10-10T17:16:47.056Z,3.70
2017-10-10T17:19:14.718Z,2.33
2017-10-10T17:21:42.244Z,2.80
2017-10-10T17:24:09.769Z,3.30
2017-10-10T17:26:37.285Z,4.13
2017-10-10T17:29:04.817Z,3.57
2017-10-10T17:31:32.467Z,3.30
2017-10-10T17:34:00.141Z,3.60
2017-10-10T17:36:27.680Z,4.63
2017-10-10T17:38:55.274Z,4.03
2017-10-10T17:41:22.811Z,3.60
2017-10-10T17:43:50.510Z,3.13
2017-10-10T17:46:18.108Z,3.50
2017-10-10T17:48:45.703Z,3.03
2017-10-10T17:51:13.392Z,3.30
2017-10-10T17:53:41.080Z,3.37
2017-10-10T17:56:08.920Z,2.97
2017-10-10T17:58:36.784Z,3.70
2017-10-10T18:01:04.855Z,3.73
2017-10-10T18:03:32.823Z,2.83
2017-10-10T18:06:00.896Z,3.20
2017-10-10T18:08:28.891Z,3.27
2017-10-10T18:10:56.840Z,2.80
2017-10-10T18:13:24.801Z,2.67
2017-10-10T18:15:52.663Z,3.33
2017-10-10T18:18:20.534Z,2.80
2017-10-10T18:20:48.601Z,3.40
2017-10-10T18:23:16.582Z,3.10
2017-10-10T18:25:44.436Z,3.73
2017-10-10T18:28:12.406Z,7.00
2017-10-10T18:30:40.476Z,4.90
2017-10-10T18:33:08.547Z,4.47
2017-10-10T18:35:36.424Z,4.80
2017-10-10T18:38:04.412Z,4.00
2017-10-10T18:40:33.374Z,5.20
2017-10-10T18:43:01.250Z,4.90
2017-10-10T18:45:29.210Z,5.17
2017-10-10T18:47:57.181Z,4.67
2017-10-10T18:50:25.248Z,5.33
2017-10-10T18:52:53.216Z,5.20
2017-10-10T18:55:21.184Z,6.30
2017-10-10T18:57:49.152Z,5.60
2017-10-10T19:00:17.121Z,6.20
2017-10-10T19:02:45.093Z,7.03
2017-10-10T19:05:13.161Z,4.97
2017-10-10T19:07:41.026Z,4.80
2017-10-10T19:10:08.891Z,5.67
2017-10-10T19:12:36.865Z,5.90
2017-10-10T19:15:04.932Z,6.07
2017-10-10T19:17:32.804Z,6.53
2017-10-10T19:20:00.663Z,6.93
2017-10-10T19:22:28.631Z,7.20
2017-10-10T19:24:56.815Z,6.37
2017-10-10T19:27:24.847Z,6.83
2017-10-10T19:29:52.846Z,5.30
2017-10-10T19:32:20.812Z,5.57
2017-10-10T19:34:48.666Z,6.93
2017-10-10T19:37:16.529Z,6.90
2017-10-10T19:39:44.412Z,6.77
2017-10-10T19:42:12.380Z,7.43
2017-10-10T19:44:40.386Z,8.30
2017-10-10T19:47:08.316Z,7.00
2017-10-10T19:49:36.386Z,7.20
2017-10-10T19:52:04.251Z,7.37
2017-10-10T19:54:32.142Z,6.70
2017-10-10T19:57:00.188Z,8.50
2017-10-10T19:59:28.055Z,7.30
2017-10-10T20:01:56.025Z,9.00
2017-10-10T20:04:24.094Z,8.37
2017-10-10T20:06:51.960Z,9.40
2017-10-10T20:09:20.068Z,7.67
2017-10-10T20:11:48.311Z,8.40
2017-10-10T20:14:16.377Z,7.53
2017-10-10T20:16:44.244Z,7.93
2017-10-10T20:19:12.225Z,6.53
2017-10-10T20:21:40.182Z,6.47
2017-10-10T20:24:08.066Z,6.57
2017-10-10T20:26:35.913Z,7.03
2017-10-10T20:29:03.758Z,7.37
2017-10-10T20:31:31.497Z,7.50
2017-10-10T20:33:59.045Z,6.37
2017-10-10T20:36:26.620Z,7.77
2017-10-10T20:38:54.157Z,6.63
2017-10-10T20:41:21.777Z,7.50
2017-10-10T20:43:49.319Z,6.57
2017-10-10T20:46:16.855Z,6.47
2017-10-10T20:48:44.373Z,6.80
2017-10-10T20:51:11.895Z,6.10
2017-10-10T20:53:39.441Z,5.77
2017-10-10T20:56:06.967Z,6.00
2017-10-10T20:58:34.492Z,6.80
2017-10-10T21:01:02.012Z,6.30
2017-10-10T21:03:29.543Z,6.57
2017-10-10T21:05:57.057Z,5.67
2017-10-10T21:08:24.597Z,6.00
2017-10-10T21:10:52.129Z,5.80
2017-10-10T21:13:19.657Z,5.87
2017-10-10T21:15:47.212Z,5.43
2017-10-10T21:18:14.761Z,6.20
2017-10-10T21:20:42.410Z,4.90
2017-10-10T21:23:09.918Z,5.27
2017-10-10T21:25:37.436Z,5.77
2017-10-10T21:28:04.982Z,6.97
2017-10-10T21:30:32.540Z,7.47
2017-10-10T21:33:00.101Z,7.20
2017-10-10T21:35:27.658Z,8.77
2017-10-10T21:37:55.172Z,7.27
2017-10-10T21:40:22.670Z,7.13
2017-10-10T21:42:50.195Z,6.00
2017-10-10T21:45:17.709Z,6.57
2017-10-10T21:47:45.234Z,5.80
2017-10-10T21:50:12.743Z,6.20
2017-10-10T21:52:40.369Z,6.53
2017-10-10T21:55:07.898Z,7.10
2017-10-10T21:57:35.414Z,6.97
2017-10-10T22:00:02.947Z,7.10
2017-10-10T22:02:30.490Z,7.80
2017-10-10T22:04:58.009Z,9.13
2017-10-10T22:07:25.518Z,7.80
2017-10-10T22:09:53.029Z,7.47
2017-10-10T22:12:20.566Z,7.23
2017-10-10T22:14:48.094Z,6.50
2017-10-10T22:17:15.619Z,7.03
2017-10-10T22:19:43.131Z,8.63
2017-10-10T22:22:10.653Z,7.77
2017-10-10T22:24:38.167Z,7.03
2017-10-10T22:27:05.677Z,6.43
2017-10-10T22:29:33.342Z,7.40
2017-10-10T22:32:00.860Z,6.23
2017-10-10T22:34:28.355Z,7.00
2017-10-10T22:36:55.867Z,7.70
2017-10-10T22:39:23.399Z,7.13
2017-10-10T22:41:50.925Z,7.90
2017-10-10T22:44:18.443Z,7.50
2017-10-10T22:46:46.097Z,7.00
2017-10-10T22:49:13.621Z,7.53
2017-10-10T22:51:41.147Z,7.40
2017-10-10T22:54:08.681Z,7.10
2017-10-10T22:56:36.242Z,7.10
2017-10-10T22:59:03.757Z,6.30
2017-10-10T23:01:31.287Z,7.47
2017-10-10T23:03:58.808Z,7.63
2017-10-10T23:06:26.323Z,7.27
2017-10-10T23:08:53.974Z,7.20
2017-10-10T23:11:21.531Z,7.60
2017-10-10T23:13:49.115Z,7.70
2017-10-10T23:16:16.664Z,7.10
2017-10-10T23:18:44.178Z,7.50
2017-10-10T23:21:11.703Z,6.83
2017-10-10T23:23:39.243Z,7.37
2017-10-10T23:26:06.776Z,7.63
2017-10-10T23:28:34.292Z,6.30
2017-10-10T23:31:01.839Z,6.50
2017-10-10T23:33:29.356Z,6.57
2017-10-10T23:35:56.868Z,6.83
2017-10-10T23:38:24.420Z,7.20
2017-10-10T23:40:52.033Z,6.60
2017-10-10T23:43:19.553Z,6.70
2017-10-10T23:45:47.074Z,6.30
2017-10-10T23:48:14.590Z,5.37
2017-10-10T23:50:42.099Z,5.23
2017-10-10T23:53:09.616Z,5.10
2017-10-10T23:55:37.134Z,7.37
2017-10-10T23:58:04.644Z,5.93
